createdAt,value
2018-10-06T00:01:22.688Z,12.70
2018-10-06T00:03:52.143Z,17.80
2018-10-06T00:06:21.551Z,11.60
2018-10-06T00:08:50.999Z,10.87
2018-10-06T00:11:20.425Z,13.33
2018-10-06T00:13:49.819Z,16.47
2018-10-06T00:16:19.236Z,8.53
2018-10-06T00:18:48.645Z,9.50
2018-10-06T00:21:18.223Z,10.40
2018-10-06T00:23:47.624Z,17.57
2018-10-06T00:26:17.004Z,8.77
2018-10-06T00:28:46.383Z,9.83
2018-10-06T00:31:15.799Z,10.43
2018-10-06T00:33:45.231Z,20.13
2018-10-06T00:36:14.667Z,9.63
2018-10-06T00:38:44.099Z,8.60
2018-10-06T00:41:13.571Z,10.90
2018-10-06T00:43:42.987Z,9.57
2018-10-06T00:46:12.439Z,12.90
2018-10-06T00:48:41.828Z,10.47
2018-10-06T00:51:11.263Z,10.50
2018-10-06T00:53:40.700Z,13.80
2018-10-06T00:56:10.135Z,11.57
2018-10-06T00:58:39.519Z,11.25
2018-10-06T01:01:08.949Z,9.10
2018-10-06T01:03:38.339Z,14.20
2018-10-06T01:06:07.839Z,11.77
2018-10-06T01:08:37.251Z,12.40
2018-10-06T01:11:06.692Z,8.97
2018-10-06T01:13:36.178Z,12.47
2018-10-06T01:16:05.584Z,8.90
2018-10-06T01:18:34.980Z,8.17
2018-10-06T01:21:04.448Z,10.00
2018-10-06T01:23:33.867Z,12.73
2018-10-06T01:26:03.279Z,9.70
2018-10-06T01:28:32.703Z,15.10
2018-10-06T01:31:02.123Z,8.67
2018-10-06T01:33:31.559Z,15.17
2018-10-06T01:36:01.100Z,10.90
2018-10-06T01:38:30.510Z,14.57
2018-10-06T01:40:59.907Z,10.13
2018-10-06T01:43:29.339Z,11.50
2018-10-06T01:45:58.775Z,9.93
2018-10-06T01:48:28.171Z,13.10
2018-10-06T01:50:57.750Z,14.57
2018-10-06T01:53:27.106Z,12.13
2018-10-06T01:55:56.527Z,12.97
2018-10-06T01:58:25.959Z,9.73
2018-10-06T02:00:55.347Z,13.13
2018-10-06T02:03:24.760Z,13.83
2018-10-06T02:05:54.200Z,14.17
2018-10-06T02:08:23.618Z,9.68
2018-10-06T02:10:53.020Z,8.23
2018-10-06T02:13:22.476Z,9.00
2018-10-06T02:15:51.986Z,10.27
2018-10-06T02:18:21.395Z,12.70
2018-10-06T02:20:50.853Z,7.30
2018-10-06T02:23:20.483Z,13.23
2018-10-06T02:25:49.891Z,11.50
2018-10-06T02:28:19.301Z,10.27
2018-10-06T02:30:48.810Z,8.10
2018-10-06T02:33:18.816Z,8.98
2018-10-06T02:35:48.218Z,8.93
2018-10-06T02:38:18.768Z,14.82
2018-10-06T02:40:48.239Z,9.47
2018-10-06T02:43:18.804Z,11.33
2018-10-06T02:45:48.439Z,11.33
2018-10-06T02:48:18.840Z,12.60
2018-10-06T02:50:48.664Z,12.77
2018-10-06T02:53:18.715Z,14.63
2018-10-06T02:55:48.132Z,12.33
2018-10-06T02:58:18.778Z,11.13
2018-10-06T03:00:48.216Z,10.37
2018-10-06T03:03:18.895Z,10.50
2018-10-06T03:05:48.314Z,12.77
2018-10-06T03:08:18.940Z,8.70
2018-10-06T03:10:48.355Z,7.60
2018-10-06T03:13:18.868Z,7.70
2018-10-06T03:15:48.372Z,9.77
2018-10-06T03:18:18.904Z,9.06
2018-10-06T03:20:48.313Z,7.77
2018-10-06T03:23:18.952Z,21.83
2018-10-06T03:25:48.355Z,9.63
2018-10-06T03:28:18.992Z,8.03
2018-10-06T03:30:48.396Z,10.80
2018-10-06T03:33:19.040Z,10.00
2018-10-06T03:35:48.474Z,10.97
2018-10-06T03:38:19.119Z,12.00
2018-10-06T03:40:48.643Z,7.73
2018-10-06T03:43:19.071Z,12.78
2018-10-06T03:45:48.467Z,11.90
2018-10-06T03:48:19.113Z,9.57
2018-10-06T03:50:48.507Z,10.50
2018-10-06T03:53:19.159Z,9.33
2018-10-06T03:55:48.548Z,9.57
2018-10-06T03:58:19.103Z,9.92
2018-10-06T04:00:48.491Z,9.93
2018-10-06T04:03:19.131Z,8.30
2018-10-06T04:05:48.528Z,9.40
2018-10-06T04:08:19.168Z,9.17
2018-10-06T04:10:48.586Z,10.40
2018-10-06T04:13:19.080Z,7.32
2018-10-06T04:15:48.535Z,9.67
2018-10-06T04:18:19.165Z,8.80
2018-10-06T04:20:48.600Z,12.27
2018-10-06T04:23:19.117Z,9.18
2018-10-06T04:25:48.544Z,7.40
2018-10-06T04:28:19.319Z,11.03
2018-10-06T04:30:48.695Z,7.80
2018-10-06T04:33:19.107Z,7.28
2018-10-06T04:35:48.511Z,8.33
2018-10-06T04:38:19.135Z,8.67
2018-10-06T04:40:48.572Z,10.93
2018-10-06T04:43:19.196Z,9.93
2018-10-06T04:45:48.620Z,8.47
2018-10-06T04:48:19.108Z,8.02
2018-10-06T04:50:48.524Z,8.03
2018-10-06T04:53:19.239Z,9.80
2018-10-06T04:55:48.607Z,8.17
2018-10-06T04:58:19.272Z,10.80
2018-10-06T05:00:48.716Z,10.40
2018-10-06T05:03:19.122Z,8.03
2018-10-06T05:05:48.576Z,8.03
2018-10-06T05:08:19.208Z,9.00
2018-10-06T05:10:48.619Z,10.67
2018-10-06T05:13:19.257Z,8.93
2018-10-06T05:15:48.819Z,7.57
2018-10-06T05:18:19.119Z,8.53
2018-10-06T05:20:48.552Z,8.30
2018-10-06T05:23:19.196Z,7.90
2018-10-06T05:25:48.628Z,10.27
2018-10-06T05:28:19.260Z,9.03
2018-10-06T05:30:48.698Z,9.10
2018-10-06T05:33:19.220Z,10.58
2018-10-06T05:35:48.689Z,9.73
2018-10-06T05:38:19.152Z,9.96
2018-10-06T05:40:48.584Z,7.73
2018-10-06T05:43:19.215Z,7.87
2018-10-06T05:45:48.727Z,6.63
2018-10-06T05:48:19.221Z,11.10
2018-10-06T05:50:48.616Z,7.07
2018-10-06T05:53:19.152Z,8.90
2018-10-06T05:55:48.540Z,11.67
2018-10-06T05:58:19.251Z,12.53
2018-10-06T06:00:48.649Z,10.20
2018-10-06T06:03:19.416Z,12.77
2018-10-06T06:05:48.812Z,12.27
2018-10-06T06:08:19.281Z,10.30
2018-10-06T06:10:48.668Z,11.43
2018-10-06T06:13:19.308Z,7.27
2018-10-06T06:15:48.789Z,7.77
2018-10-06T06:18:19.363Z,7.73
2018-10-06T06:20:48.773Z,9.77
2018-10-06T06:23:19.416Z,6.80
2018-10-06T06:25:48.840Z,8.10
2018-10-06T06:28:19.503Z,10.03
2018-10-06T06:30:48.903Z,9.40
2018-10-06T06:33:19.424Z,9.66
2018-10-06T06:35:48.840Z,9.47
2018-10-06T06:38:19.488Z,9.28
2018-10-06T06:40:48.891Z,9.63
2018-10-06T06:43:19.709Z,9.46
2018-10-06T06:45:49.118Z,9.20
2018-10-06T06:48:19.402Z,8.50
2018-10-06T06:50:48.991Z,11.03
2018-10-06T06:53:19.393Z,10.15
2018-10-06T06:55:48.796Z,16.50
2018-10-06T06:58:19.456Z,12.50
2018-10-06T07:00:48.894Z,10.17
2018-10-06T07:03:19.548Z,13.30
2018-10-06T07:05:49.017Z,11.83
2018-10-06T07:08:19.406Z,11.28
2018-10-06T07:10:48.808Z,12.70
2018-10-06T07:13:19.452Z,10.80
2018-10-06T07:15:48.851Z,11.00
2018-10-06T07:18:19.563Z,10.07
2018-10-06T07:20:48.919Z,9.40
2018-10-06T07:23:19.465Z,9.24
2018-10-06T07:25:48.864Z,11.60
2018-10-06T07:28:19.412Z,12.64
2018-10-06T07:30:48.808Z,11.57
2018-10-06T07:33:19.447Z,12.47
2018-10-06T07:35:48.854Z,10.53
2018-10-06T07:38:19.467Z,7.80
2018-10-06T07:40:48.871Z,11.70
2018-10-06T07:43:19.387Z,8.56
2018-10-06T07:45:48.807Z,7.40
2018-10-06T07:48:19.520Z,9.90
2018-10-06T07:50:49.172Z,9.57
2018-10-06T07:53:19.553Z,12.60
2018-10-06T07:55:48.948Z,13.77
2018-10-06T07:58:19.480Z,12.32
2018-10-06T08:00:48.832Z,14.17
2018-10-06T08:03:19.616Z,12.60
2018-10-06T08:05:49.125Z,12.80
2018-10-06T08:08:19.619Z,12.13
2018-10-06T08:10:49.076Z,14.03
2018-10-06T08:13:19.500Z,12.40
2018-10-06T08:15:48.920Z,11.67
2018-10-06T08:18:19.439Z,17.30
2018-10-06T08:20:48.891Z,12.70
2018-10-06T08:23:19.589Z,18.60
2018-10-06T08:25:49.004Z,16.57
2018-10-06T08:28:19.500Z,15.86
2018-10-06T08:30:48.920Z,12.87
2018-10-06T08:33:19.580Z,18.80
2018-10-06T08:35:49.007Z,18.83
2018-10-06T08:38:19.497Z,14.96
2018-10-06T08:40:48.892Z,17.57
2018-10-06T08:43:19.552Z,21.83
2018-10-06T08:45:48.977Z,18.60
2018-10-06T08:48:19.468Z,16.28
2018-10-06T08:50:48.861Z,20.43
2018-10-06T08:53:19.504Z,16.43
2018-10-06T08:55:48.914Z,20.33
2018-10-06T08:58:19.608Z,18.40
2018-10-06T09:00:49.020Z,20.20
2018-10-06T09:03:19.568Z,21.52
2018-10-06T09:05:49.000Z,22.37
2018-10-06T09:08:19.484Z,19.68
2018-10-06T09:10:48.944Z,31.47
2018-10-06T09:13:19.585Z,27.67
2018-10-06T09:15:49.015Z,18.60
2018-10-06T09:18:19.625Z,19.07
2018-10-06T09:20:49.064Z,16.60
2018-10-06T09:23:19.504Z,16.95
2018-10-06T09:25:49.021Z,17.40
2018-10-06T09:28:19.598Z,17.94
2018-10-06T09:30:49.089Z,19.03
2018-10-06T09:33:19.496Z,11.93
2018-10-06T09:35:49.037Z,16.87
2018-10-06T09:38:19.504Z,17.50
2018-10-06T09:40:48.945Z,15.20
2018-10-06T09:43:19.588Z,19.10
2018-10-06T09:45:49.032Z,16.17
2018-10-06T09:48:19.706Z,14.20
2018-10-06T09:50:49.118Z,13.00
2018-10-06T09:53:19.539Z,13.85
2018-10-06T09:55:48.956Z,13.63
2018-10-06T09:58:19.616Z,13.67
2018-10-06T10:00:54.146Z,11.10
2018-10-06T10:03:28.928Z,11.80
2018-10-06T10:05:58.506Z,13.20
2018-10-06T10:08:27.816Z,16.03
2018-10-06T10:10:57.224Z,12.90
2018-10-06T10:13:26.615Z,11.43
2018-10-06T10:15:56.008Z,17.43
2018-10-06T10:18:25.582Z,11.20
2018-10-06T10:20:54.955Z,17.47
2018-10-06T10:23:24.439Z,14.13
2018-10-06T10:25:53.796Z,18.70
2018-10-06T10:28:23.274Z,9.53
2018-10-06T10:30:52.617Z,19.30
2018-10-06T10:33:22.063Z,13.50
2018-10-06T10:35:51.493Z,13.67
2018-10-06T10:38:20.947Z,21.80
2018-10-06T10:40:51.148Z,14.00
2018-10-06T10:43:20.616Z,15.87
2018-10-06T10:45:50.043Z,15.57
2018-10-06T10:48:19.860Z,14.23
2018-10-06T10:50:49.249Z,12.57
2018-10-06T10:53:19.843Z,12.47
2018-10-06T10:55:49.266Z,14.10
2018-10-06T10:58:19.744Z,12.63
2018-10-06T11:00:49.146Z,13.30
2018-10-06T11:03:19.916Z,13.30
2018-10-06T11:05:49.323Z,13.53
2018-10-06T11:08:19.866Z,13.90
2018-10-06T11:10:49.312Z,11.70
2018-10-06T11:13:19.744Z,10.35
2018-10-06T11:15:49.208Z,11.20
2018-10-06T11:18:19.868Z,8.37
2018-10-06T11:20:49.315Z,12.33
2018-10-06T11:23:19.804Z,9.90
2018-10-06T11:25:49.239Z,9.97
2018-10-06T11:28:19.742Z,10.26
2018-10-06T11:30:49.195Z,11.30
2018-10-06T11:33:19.820Z,10.53
2018-10-06T11:35:50.207Z,9.40
2018-10-06T11:38:19.885Z,10.82
2018-10-06T11:40:49.231Z,10.97
2018-10-06T11:43:19.743Z,10.62
2018-10-06T11:45:49.235Z,17.20
2018-10-06T11:48:19.788Z,10.60
2018-10-06T11:50:49.195Z,8.30
2018-10-06T11:53:19.844Z,8.67
2018-10-06T11:55:49.271Z,12.10
2018-10-06T11:58:21.496Z,9.73
2018-10-06T12:00:51.001Z,15.20
2018-10-06T12:03:20.596Z,12.40
2018-10-06T12:05:50.152Z,10.73
2018-10-06T12:08:19.849Z,9.50
2018-10-06T12:10:49.260Z,10.10
2018-10-06T12:13:20.023Z,9.57
2018-10-06T12:15:49.415Z,11.17
2018-10-06T12:18:19.789Z,8.28
2018-10-06T12:20:49.196Z,8.70
2018-10-06T12:23:19.866Z,8.60
2018-10-06T12:25:49.300Z,12.00
2018-10-06T12:28:19.991Z,9.20
2018-10-06T12:30:49.399Z,11.03
2018-10-06T12:33:20.061Z,13.67
2018-10-06T12:35:49.657Z,12.50
2018-10-06T12:38:20.048Z,13.38
2018-10-06T12:40:49.447Z,15.53
2018-10-06T12:43:19.982Z,9.88
2018-10-06T12:45:49.405Z,12.77
2018-10-06T12:48:20.072Z,11.13
2018-10-06T12:50:49.494Z,12.60
2018-10-06T12:53:20.037Z,14.38
2018-10-06T12:55:49.429Z,12.20
2018-10-06T12:58:20.104Z,15.40
2018-10-06T13:00:49.511Z,13.03
2018-10-06T13:03:20.264Z,12.37
2018-10-06T13:05:49.707Z,14.33
2018-10-06T13:08:20.059Z,10.58
2018-10-06T13:10:49.497Z,10.53
2018-10-06T13:13:20.152Z,10.70
2018-10-06T13:15:49.591Z,10.30
2018-10-06T13:18:20.081Z,7.03
2018-10-06T13:20:49.488Z,9.37
2018-10-06T13:23:20.023Z,9.22
2018-10-06T13:25:49.483Z,11.17
2018-10-06T13:28:20.124Z,8.73
2018-10-06T13:30:49.584Z,11.90
2018-10-06T13:33:20.037Z,9.60
2018-10-06T13:35:49.444Z,10.30
2018-10-06T13:38:20.109Z,7.03
2018-10-06T13:40:49.512Z,10.30
2018-10-06T13:43:20.231Z,6.50
2018-10-06T13:45:49.631Z,8.77
2018-10-06T13:48:20.100Z,12.30
2018-10-06T13:50:49.615Z,10.07
2018-10-06T13:53:20.092Z,7.70
2018-10-06T13:55:49.503Z,11.13
2018-10-06T13:58:20.180Z,10.13
2018-10-06T14:00:49.924Z,9.10
2018-10-06T14:03:20.313Z,6.67
2018-10-06T14:05:49.753Z,7.90
2018-10-06T14:08:20.228Z,8.85
2018-10-06T14:10:49.692Z,6.10
2018-10-06T14:13:20.043Z,9.95
2018-10-06T14:15:49.471Z,8.67
2018-10-06T14:18:20.109Z,8.60
2018-10-06T14:20:49.532Z,11.00
2018-10-06T14:23:20.179Z,8.73
2018-10-06T14:25:49.590Z,7.80
2018-10-06T14:28:20.115Z,11.10
2018-10-06T14:30:49.515Z,7.07
2018-10-06T14:33:20.072Z,8.32
2018-10-06T14:35:49.488Z,6.87
2018-10-06T14:38:20.142Z,7.40
2018-10-06T14:40:49.620Z,9.07
2018-10-06T14:43:20.085Z,6.17
2018-10-06T14:45:49.612Z,11.73
2018-10-06T14:48:20.120Z,7.05
2018-10-06T14:50:49.667Z,9.77
2018-10-06T14:53:20.127Z,5.20
2018-10-06T14:55:49.572Z,10.07
2018-10-06T14:58:20.095Z,6.74
2018-10-06T15:00:49.547Z,7.30
2018-10-06T15:03:20.262Z,6.73
2018-10-06T15:05:49.747Z,9.83
2018-10-06T15:08:20.235Z,6.40
2018-10-06T15:10:49.674Z,10.60
2018-10-06T15:13:20.269Z,7.87
2018-10-06T15:15:49.695Z,10.00
2018-10-06T15:18:20.138Z,8.20
2018-10-06T15:20:49.548Z,5.00
2018-10-06T15:23:20.196Z,10.90
2018-10-06T15:25:49.595Z,6.37
2018-10-06T15:28:20.264Z,7.37
2018-10-06T15:30:49.672Z,11.07
2018-10-06T15:33:20.119Z,8.18
2018-10-06T15:35:49.588Z,10.13
2018-10-06T15:38:20.190Z,5.60
2018-10-06T15:40:49.579Z,8.20
2018-10-06T15:43:20.257Z,6.53
2018-10-06T15:45:49.655Z,8.33
2018-10-06T15:48:20.153Z,4.95
2018-10-06T15:50:49.558Z,9.50
2018-10-06T15:53:20.215Z,11.10
2018-10-06T15:55:49.644Z,12.60
2018-10-06T15:58:20.177Z,10.86
2018-10-06T16:00:49.613Z,7.93
2018-10-06T16:03:20.113Z,8.90
2018-10-06T16:05:49.667Z,13.10
2018-10-06T16:08:20.144Z,6.37
2018-10-06T16:10:49.552Z,9.20
2018-10-06T16:13:20.201Z,10.47
2018-10-06T16:15:49.634Z,6.50
2018-10-06T16:18:20.275Z,8.60
2018-10-06T16:20:49.720Z,7.57
2018-10-06T16:23:20.172Z,12.25
2018-10-06T16:25:49.660Z,8.63
2018-10-06T16:28:20.211Z,8.12
2018-10-06T16:30:49.700Z,9.23
2018-10-06T16:33:20.226Z,8.54
2018-10-06T16:35:49.627Z,13.37
2018-10-06T16:38:20.276Z,15.07
2018-10-06T16:40:49.713Z,18.70
2018-10-06T16:43:20.235Z,31.80
2018-10-06T16:45:49.706Z,26.63
2018-10-06T16:48:20.200Z,24.60
2018-10-06T16:50:49.611Z,27.90
2018-10-06T16:53:20.320Z,22.97
2018-10-06T16:55:49.763Z,21.97
2018-10-06T16:58:20.208Z,20.80
2018-10-06T17:00:49.631Z,18.63
2018-10-06T17:03:20.272Z,15.57
2018-10-06T17:05:49.692Z,15.60
2018-10-06T17:08:20.167Z,17.95
2018-10-06T17:10:49.637Z,17.03
2018-10-06T17:13:20.164Z,16.43
2018-10-06T17:15:49.604Z,23.07
2018-10-06T17:18:20.248Z,19.27
2018-10-06T17:20:49.688Z,18.23
2018-10-06T17:23:20.351Z,23.50
2018-10-06T17:25:49.764Z,18.07
2018-10-06T17:28:20.212Z,17.20
2018-10-06T17:30:49.688Z,16.13
2018-10-06T17:33:20.223Z,12.22
2018-10-06T17:35:49.656Z,13.40
2018-10-06T17:38:20.187Z,14.26
2018-10-06T17:40:49.639Z,13.83
2018-10-06T17:43:20.295Z,11.23
2018-10-06T17:45:49.756Z,10.53
2018-10-06T17:48:20.231Z,13.60
2018-10-06T17:50:49.824Z,9.07
2018-10-06T17:53:20.291Z,10.30
2018-10-06T17:55:49.776Z,12.50
2018-10-06T17:58:20.316Z,14.23
2018-10-06T18:00:49.680Z,12.37
2018-10-06T18:03:20.368Z,9.60
2018-10-06T18:05:49.785Z,11.07
2018-10-06T18:08:20.203Z,10.25
2018-10-06T18:10:49.615Z,11.23
2018-10-06T18:13:20.313Z,13.13
2018-10-06T18:15:49.712Z,8.57
2018-10-06T18:18:20.216Z,8.94
2018-10-06T18:20:49.741Z,10.53
2018-10-06T18:23:20.356Z,12.60
2018-10-06T18:25:49.860Z,13.30
2018-10-06T18:28:20.303Z,13.48
2018-10-06T18:30:49.843Z,12.30
2018-10-06T18:33:20.227Z,9.70
2018-10-06T18:35:49.648Z,11.70
2018-10-06T18:38:20.300Z,13.90
2018-10-06T18:40:49.780Z,11.80
2018-10-06T18:43:20.343Z,12.70
2018-10-06T18:45:49.737Z,14.33
2018-10-06T18:48:20.260Z,9.44
2018-10-06T18:50:49.684Z,10.60
2018-10-06T18:53:20.329Z,9.70
2018-10-06T18:55:49.784Z,9.60
2018-10-06T18:58:20.426Z,11.00
2018-10-06T19:00:49.900Z,9.60
2018-10-06T19:03:20.510Z,9.90
2018-10-06T19:05:49.872Z,8.60
2018-10-06T19:08:20.505Z,10.40
2018-10-06T19:10:49.913Z,9.37
2018-10-06T19:13:20.615Z,11.37
2018-10-06T19:15:50.127Z,10.33
2018-10-06T19:18:20.564Z,7.08
2018-10-06T19:20:50.020Z,11.00
2018-10-06T19:23:20.520Z,13.18
2018-10-06T19:25:50.095Z,13.87
2018-10-06T19:28:20.613Z,9.63
2018-10-06T19:30:50.410Z,11.30
2018-10-06T19:33:20.628Z,13.35
2018-10-06T19:35:50.277Z,14.03
2018-10-06T19:38:20.553Z,12.50
2018-10-06T19:40:51.309Z,9.37
2018-10-06T19:43:20.890Z,11.77
2018-10-06T19:45:50.760Z,10.70
2018-10-06T19:48:21.856Z,12.78
2018-10-06T19:50:52.060Z,16.00
2018-10-06T19:53:21.894Z,12.40
2018-10-06T19:55:52.384Z,12.07
2018-10-06T19:58:21.858Z,12.30
2018-10-06T20:00:51.904Z,12.03
2018-10-06T20:03:22.238Z,10.47
2018-10-06T20:05:52.446Z,9.40
2018-10-06T20:08:21.896Z,10.33
2018-10-06T20:10:51.433Z,9.63
2018-10-06T20:13:21.068Z,11.27
2018-10-06T20:15:50.804Z,13.23
2018-10-06T20:18:20.683Z,12.95
2018-10-06T20:20:50.125Z,10.30
2018-10-06T20:23:20.612Z,10.90
2018-10-06T20:25:50.419Z,12.17
2018-10-06T20:28:20.944Z,11.18
2018-10-06T20:30:50.377Z,8.47
2018-10-06T20:33:20.640Z,13.30
2018-10-06T20:35:50.163Z,11.10
2018-10-06T20:38:20.499Z,11.60
2018-10-06T20:40:49.954Z,10.50
2018-10-06T20:43:20.616Z,15.40
2018-10-06T20:45:50.137Z,12.90
2018-10-06T20:48:20.545Z,9.48
2018-10-06T20:50:49.955Z,11.33
2018-10-06T20:53:20.635Z,14.40
2018-10-06T20:55:50.043Z,11.43
2018-10-06T20:58:20.659Z,13.94
2018-10-06T21:00:50.109Z,10.77
2018-10-06T21:03:20.588Z,13.43
2018-10-06T21:05:50.008Z,15.70
2018-10-06T21:08:20.660Z,13.13
2018-10-06T21:10:50.134Z,26.23
2018-10-06T21:13:20.532Z,25.60
2018-10-06T21:15:49.954Z,16.57
2018-10-06T21:18:20.614Z,11.00
2018-10-06T21:20:50.039Z,16.57
2018-10-06T21:23:20.571Z,10.78
2018-10-06T21:25:49.992Z,10.80
2018-10-06T21:28:20.674Z,17.00
2018-10-06T21:30:50.180Z,13.00
2018-10-06T21:33:21.011Z,16.67
2018-10-06T21:35:51.856Z,14.23
2018-10-06T21:38:21.676Z,12.27
2018-10-06T21:40:51.220Z,11.73
2018-10-06T21:43:20.856Z,14.60
2018-10-06T21:45:50.517Z,10.30
2018-10-06T21:48:20.755Z,10.98
2018-10-06T21:50:50.484Z,11.03
2018-10-06T21:53:20.815Z,12.18
2018-10-06T21:55:50.671Z,13.40
2018-10-06T21:58:20.792Z,15.15
2018-10-06T22:00:55.768Z,16.73
2018-10-06T22:03:25.573Z,12.07
2018-10-06T22:05:55.395Z,14.70
2018-10-06T22:08:24.848Z,12.47
2018-10-06T22:10:54.357Z,14.57
2018-10-06T22:13:24.419Z,9.57
2018-10-06T22:15:53.845Z,13.20
2018-10-06T22:18:23.291Z,6.50
2018-10-06T22:20:52.718Z,17.50
2018-10-06T22:23:22.139Z,16.57
2018-10-06T22:25:51.721Z,13.93
2018-10-06T22:28:21.132Z,14.10
2018-10-06T22:30:50.903Z,15.17
2018-10-06T22:33:21.019Z,15.98
2018-10-06T22:35:50.567Z,14.93
2018-10-06T22:38:21.111Z,11.75
2018-10-06T22:40:50.951Z,12.17
2018-10-06T22:43:21.278Z,10.48
2018-10-06T22:45:50.968Z,12.10
2018-10-06T22:48:21.002Z,12.20
2018-10-06T22:50:50.519Z,9.40
2018-10-06T22:53:21.243Z,10.45
2018-10-06T22:55:50.867Z,13.27
2018-10-06T22:58:21.190Z,9.40
2018-10-06T23:00:50.727Z,13.73
2018-10-06T23:03:21.040Z,9.90
2018-10-06T23:05:50.687Z,13.07
2018-10-06T23:08:21.002Z,11.22
2018-10-06T23:10:50.436Z,12.70
2018-10-06T23:13:21.289Z,12.95
2018-10-06T23:15:50.959Z,11.80
2018-10-06T23:18:21.042Z,13.22
2018-10-06T23:20:50.749Z,8.10
2018-10-06T23:23:21.172Z,13.48
2018-10-06T23:25:52.049Z,12.83
2018-10-06T23:28:21.880Z,11.67
2018-10-06T23:30:51.413Z,10.93
2018-10-06T23:33:20.999Z,9.50
2018-10-06T23:35:50.436Z,9.83
2018-10-06T23:38:20.913Z,9.70
2018-10-06T23:40:50.587Z,9.60
2018-10-06T23:43:21.056Z,10.23
2018-10-06T23:45:50.586Z,10.87
2018-10-06T23:48:20.879Z,9.58
2018-10-06T23:50:50.300Z,11.00
2018-10-06T23:53:20.919Z,13.46
2018-10-06T23:55:50.313Z,9.63
2018-10-06T23:58:20.951Z,13.90
